Time;durP1;ratioP1;P1;durP2;ratioP2;P2;SDS_P1;SDS_P2;PMS_P1;PMS_P2;Temp;Humidity;BMP_temperature;BMP_pressure;BME280_temperature;BME280_humidity;BME280_pressure;Samples;Min_cycle;Max_cycle;Signal;HPM_P1;HPM_P2
2022/01/05 00:01:56;;;;;;;14.97;3.47;;;3.50;99.90;;;;;;5050247;28;20437;-79
2022/01/05 00:04:56;;;;;;;8.20;2.57;;;3.50;99.90;;;;;;5050993;28;20433;-80
2022/01/05 00:07:27;;;;;;;10.67;2.27;;;3.40;99.90;;;;;;5050024;28;20420;-79
2022/01/05 00:10:32;;;;;;;7.93;2.57;;;3.40;99.90;;;;;;5050585;28;20429;-80
2022/01/05 00:13:14;;;;;;;10.03;2.33;;;3.30;99.90;;;;;;5050056;28;20475;-80
2022/01/05 00:15:41;;;;;;;9.90;2.57;;;3.30;99.90;;;;;;5048325;28;20491;-79
2022/01/05 00:18:21;;;;;;;8.13;2.67;;;3.30;99.90;;;;;;5050292;28;20453;-80
2022/01/05 00:20:54;;;;;;;12.47;2.67;;;3.40;99.90;;;;;;5049882;28;20424;-80
2022/01/05 00:23:25;;;;;;;8.97;2.57;;;3.30;99.90;;;;;;5048739;28;20456;-80
2022/01/05 00:25:55;;;;;;;12.23;3.13;;;3.30;99.90;;;;;;5044789;28;20448;-80
2022/01/05 00:28:34;;;;;;;7.27;2.70;;;3.30;99.90;;;;;;5047316;28;20425;-80
2022/01/05 00:31:07;;;;;;;9.90;2.60;;;3.40;99.90;;;;;;5047350;28;20566;-79
2022/01/05 00:33:41;;;;;;;7.80;2.37;;;3.50;99.90;;;;;;5047809;28;20487;-79
2022/01/05 00:36:22;;;;;;;13.70;2.70;;;3.40;99.90;;;;;;5047101;28;20445;-79
2022/01/05 00:38:55;;;;;;;8.93;2.33;;;3.50;99.90;;;;;;5046899;28;20471;-80
2022/01/05 00:41:25;;;;;;;10.77;2.53;;;3.30;99.90;;;;;;5049367;28;20453;-80
2022/01/05 00:43:59;;;;;;;8.00;3.33;;;3.40;99.90;;;;;;5048975;28;20429;-79
2022/01/05 00:46:40;;;;;;;9.83;2.90;;;3.40;99.90;;;;;;5048204;28;20475;-79
2022/01/05 00:49:09;;;;;;;12.67;2.90;;;3.40;99.90;;;;;;5048257;28;20911;-80
2022/01/05 00:51:56;;;;;;;11.13;3.47;;;3.40;99.90;;;;;;5053246;28;20487;-79
2022/01/05 00:54:42;;;;;;;11.07;2.93;;;3.40;99.90;;;;;;5051252;28;20567;-80
2022/01/05 00:57:10;;;;;;;8.77;2.73;;;3.40;99.90;;;;;;5050947;28;20452;-80
2022/01/05 00:59:50;;;;;;;11.10;3.17;;;3.50;99.90;;;;;;5051291;28;20432;-80
2022/01/05 01:02:23;;;;;;;15.87;2.90;;;3.40;99.90;;;;;;5049275;28;20447;-80
2022/01/05 01:04:53;;;;;;;13.80;3.40;;;3.30;99.90;;;;;;5051057;28;20431;-79
2022/01/05 01:07:24;;;;;;;9.47;3.30;;;3.40;99.90;;;;;;5049560;28;20851;-80
2022/01/05 01:09:54;;;;;;;8.27;2.37;;;3.30;99.90;;;;;;5049788;28;21038;-80
2022/01/05 01:12:24;;;;;;;9.07;3.30;;;3.50;99.90;;;;;;5048590;28;20444;-80
2022/01/05 01:15:01;;;;;;;12.63;2.83;;;3.40;99.90;;;;;;5048395;28;20490;-80
2022/01/05 01:17:30;;;;;;;7.00;3.10;;;3.50;99.90;;;;;;5046499;28;20447;-79
2022/01/05 01:19:59;;;;;;;11.73;3.33;;;3.40;99.90;;;;;;5045699;28;20913;-79
2022/01/05 01:22:31;;;;;;;11.23;3.07;;;3.40;99.90;;;;;;5043040;28;20206;-79
2022/01/05 01:24:58;;;;;;;13.57;3.47;;;3.40;99.90;;;;;;5043651;28;20868;-80
2022/01/05 01:27:40;;;;;;;12.03;3.03;;;3.40;99.90;;;;;;5043061;28;20481;-80
2022/01/05 01:30:14;;;;;;;19.00;4.43;;;3.40;99.90;;;;;;5042656;28;20480;-80
2022/01/05 01:32:48;;;;;;;14.50;2.80;;;3.40;99.90;;;;;;5042358;28;20476;-80
2022/01/05 01:35:16;;;;;;;16.23;2.83;;;3.40;99.90;;;;;;5041568;28;20919;-80
2022/01/05 01:37:56;;;;;;;13.03;2.93;;;3.40;99.90;;;;;;5039564;28;20490;-80
2022/01/05 01:40:27;;;;;;;18.90;3.23;;;3.50;99.90;;;;;;5047158;28;20488;-80
2022/01/05 01:42:55;;;;;;;9.20;3.10;;;3.40;99.90;;;;;;5052692;28;20456;-80
2022/01/05 01:45:26;;;;;;;12.00;2.90;;;3.50;99.90;;;;;;5053804;28;20467;-80
2022/01/05 01:47:53;;;;;;;8.07;2.47;;;3.40;99.90;;;;;;5051991;28;20479;-80
2022/01/05 01:50:21;;;;;;;15.90;3.10;;;3.40;99.90;;;;;;5052573;28;20491;-80
2022/01/05 01:52:50;;;;;;;13.33;2.80;;;3.40;99.90;;;;;;5047841;28;20488;-79
2022/01/05 01:55:17;;;;;;;11.85;3.10;;;3.40;99.90;;;;;;5047648;28;20781;-80
2022/01/05 01:57:46;;;;;;;18.63;3.10;;;3.30;99.90;;;;;;5047812;28;20209;-80
2022/01/05 02:00:16;;;;;;;15.00;3.00;;;3.30;99.90;;;;;;5047827;28;20451;-79
2022/01/05 02:02:48;;;;;;;10.20;2.87;;;3.20;99.90;;;;;;5048204;28;20428;-80
2022/01/05 02:05:18;;;;;;;12.70;3.20;;;3.10;99.90;;;;;;5047949;28;20459;-80
2022/01/05 02:07:57;;;;;;;10.30;3.20;;;3.20;99.90;;;;;;5049710;28;20421;-80
2022/01/05 02:10:25;;;;;;;11.63;2.70;;;3.20;99.90;;;;;;5047308;28;20441;-80
2022/01/05 02:13:07;;;;;;;10.80;3.60;;;3.10;99.90;;;;;;5047473;28;20982;-80
2022/01/05 02:15:37;;;;;;;8.73;2.80;;;3.10;99.90;;;;;;5045309;28;20471;-80
2022/01/05 02:21:02;;;;;;;9.00;2.50;;;3.00;99.90;;;;;;5045220;28;20435;-80
2022/01/05 02:23:40;;;;;;;12.47;2.93;;;2.90;99.90;;;;;;5045126;28;20899;-80
2022/01/05 02:26:11;;;;;;;10.43;2.83;;;2.90;99.90;;;;;;5045051;28;21014;-80
2022/01/05 02:28:47;;;;;;;8.83;3.30;;;2.90;99.90;;;;;;5048978;28;20459;-80
2022/01/05 02:31:20;;;;;;;13.38;3.97;;;2.80;99.90;;;;;;5048934;28;20453;-80
2022/01/05 02:34:00;;;;;;;12.83;3.40;;;2.80;99.90;;;;;;5049658;28;20223;-80
2022/01/05 02:36:29;;;;;;;10.17;2.97;;;2.80;99.90;;;;;;5049172;28;20429;-80
2022/01/05 02:39:00;;;;;;;12.67;2.70;;;3.00;99.90;;;;;;5049768;28;20453;-80
2022/01/05 02:41:28;;;;;;;14.67;3.53;;;2.80;99.90;;;;;;5049471;28;20437;-80
2022/01/05 02:43:58;;;;;;;10.47;2.90;;;2.90;99.90;;;;;;5048598;28;20502;-80
2022/01/05 02:46:37;;;;;;;10.40;2.73;;;2.90;99.90;;;;;;5046942;28;20469;-80
2022/01/05 02:49:05;;;;;;;18.30;4.50;;;2.80;99.90;;;;;;5046713;28;20452;-80
2022/01/05 02:51:38;;;;;;;8.30;2.80;;;2.80;99.90;;;;;;5047385;28;20455;-80
2022/01/05 02:54:06;;;;;;;8.67;2.77;;;2.80;99.90;;;;;;5046627;28;20484;-80
2022/01/05 02:56:33;;;;;;;14.07;2.77;;;2.80;99.90;;;;;;5046456;28;20520;-80
2022/01/05 02:59:00;;;;;;;11.83;2.80;;;2.70;99.90;;;;;;5045248;28;20512;-80
2022/01/05 03:01:27;;;;;;;11.70;3.03;;;2.70;99.90;;;;;;5045389;28;20539;-80
2022/01/05 03:03:54;;;;;;;12.00;3.50;;;2.60;99.90;;;;;;5043803;28;20516;-80
2022/01/05 03:06:22;;;;;;;13.67;3.13;;;2.70;99.90;;;;;;5029593;28;20818;-80
2022/01/05 03:08:51;;;;;;;11.43;2.90;;;2.70;99.90;;;;;;5025250;28;20453;-80
2022/01/05 03:11:19;;;;;;;8.93;2.90;;;2.70;99.90;;;;;;5024816;28;20473;-80
2022/01/05 03:13:47;;;;;;;10.60;3.50;;;2.70;99.90;;;;;;5023815;28;20898;-79
2022/01/05 03:16:14;;;;;;;14.27;3.10;;;2.70;99.90;;;;;;5022437;28;20532;-80
2022/01/05 03:18:49;;;;;;;13.33;3.27;;;2.70;99.90;;;;;;5023020;28;20472;-80
2022/01/05 03:21:22;;;;;;;15.67;3.47;;;2.60;99.90;;;;;;5024531;28;20440;-80
2022/01/05 03:23:52;;;;;;;15.47;3.23;;;2.70;99.90;;;;;;5024540;28;20477;-81
2022/01/05 03:26:19;;;;;;;12.63;3.60;;;2.70;99.90;;;;;;5024706;28;20433;-80
2022/01/05 03:28:46;;;;;;;14.37;3.10;;;2.70;99.90;;;;;;5025225;28;20430;-79
2022/01/05 03:31:16;;;;;;;15.50;3.60;;;2.60;99.90;;;;;;5024038;28;20939;-80
2022/01/05 03:33:43;;;;;;;12.57;3.03;;;2.60;99.90;;;;;;5022462;28;20485;-80
2022/01/05 03:36:12;;;;;;;12.07;2.80;;;2.60;99.90;;;;;;5023154;28;20510;-80
2022/01/05 03:38:41;;;;;;;9.23;2.73;;;2.60;99.90;;;;;;5023179;28;20511;-80
2022/01/05 03:41:09;;;;;;;8.10;2.97;;;2.60;99.90;;;;;;5040703;28;20475;-80
2022/01/05 03:43:39;;;;;;;20.35;3.70;;;2.50;99.90;;;;;;5041128;28;20428;-80
2022/01/05 03:46:17;;;;;;;15.17;3.33;;;2.50;99.90;;;;;;5041593;28;20209;-79
2022/01/05 03:48:46;;;;;;;15.17;3.10;;;2.50;99.90;;;;;;5042441;28;20435;-80
2022/01/05 03:51:21;;;;;;;18.67;3.37;;;2.40;99.90;;;;;;5041842;28;20448;-80
2022/01/05 03:53:47;;;;;;;8.33;2.70;;;2.40;99.90;;;;;;5041268;28;20488;-79
2022/01/05 03:56:18;;;;;;;14.53;2.80;;;2.40;99.90;;;;;;5040701;28;20461;-80
2022/01/05 03:58:47;;;;;;;12.43;2.67;;;2.40;99.90;;;;;;5041262;28;20436;-80
2022/01/05 04:01:15;;;;;;;10.17;2.90;;;2.40;99.90;;;;;;5041322;28;20491;-80
2022/01/05 04:03:42;;;;;;;9.60;2.70;;;2.40;99.90;;;;;;5040448;28;20580;-80
2022/01/05 04:06:16;;;;;;;11.00;2.73;;;2.40;99.90;;;;;;5041393;28;20456;-79
2022/01/05 04:08:46;;;;;;;19.50;2.93;;;2.50;99.90;;;;;;5040551;28;20505;-80
2022/01/05 04:11:17;;;;;;;15.67;3.57;;;2.50;99.90;;;;;;5039194;28;20452;-80
2022/01/05 04:13:47;;;;;;;11.80;3.17;;;2.40;99.90;;;;;;5041375;28;20479;-80
2022/01/05 04:16:18;;;;;;;11.03;2.80;;;2.50;99.90;;;;;;5041147;28;20801;-80
2022/01/05 04:18:45;;;;;;;14.50;3.00;;;2.50;99.90;;;;;;5040688;28;20548;-80
2022/01/05 04:21:13;;;;;;;16.90;4.05;;;2.50;99.90;;;;;;5039127;28;20434;-80
2022/01/05 04:23:41;;;;;;;13.93;3.03;;;2.50;99.90;;;;;;5039522;28;20314;-80
2022/01/05 04:26:09;;;;;;;13.17;3.13;;;2.50;99.90;;;;;;5038934;28;20958;-79
2022/01/05 04:28:40;;;;;;;20.50;3.07;;;2.70;99.90;;;;;;5040619;28;20543;-80
2022/01/05 04:31:22;;;;;;;11.70;3.10;;;2.60;99.90;;;;;;5040848;28;20466;-80
2022/01/05 04:33:53;;;;;;;14.47;3.07;;;2.70;99.90;;;;;;5039812;28;20519;-80
2022/01/05 04:36:22;;;;;;;9.77;3.20;;;2.70;99.90;;;;;;5040291;28;20487;-79
2022/01/05 04:38:49;;;;;;;12.37;3.27;;;2.60;99.90;;;;;;5038671;28;20432;-80
2022/01/05 04:41:22;;;;;;;17.17;2.93;;;2.60;99.90;;;;;;5037114;28;20935;-79
2022/01/05 04:43:53;;;;;;;14.90;3.07;;;2.70;99.90;;;;;;5037032;28;20935;-79
2022/01/05 04:46:24;;;;;;;10.30;2.67;;;2.70;99.90;;;;;;5039961;28;20455;-80
2022/01/05 04:48:50;;;;;;;9.43;2.83;;;2.60;99.90;;;;;;5038407;28;20440;-80
2022/01/05 04:51:19;;;;;;;15.97;3.00;;;2.70;99.90;;;;;;5038429;28;20444;-80
2022/01/05 04:53:46;;;;;;;14.80;2.93;;;2.60;99.90;;;;;;5038102;28;20480;-79
2022/01/05 04:56:13;;;;;;;13.57;3.60;;;2.70;99.90;;;;;;5038155;28;20468;-80
2022/01/05 04:58:42;;;;;;;16.63;3.37;;;2.60;99.90;;;;;;5038546;28;20472;-80
2022/01/05 05:01:17;;;;;;;13.97;3.47;;;2.70;99.90;;;;;;5039284;28;20834;-80
2022/01/05 05:03:44;;;;;;;11.20;2.60;;;2.70;99.90;;;;;;5038635;28;20464;-80
2022/01/05 05:06:17;;;;;;;14.30;3.47;;;2.70;99.90;;;;;;5038065;28;20462;-80
2022/01/05 05:08:44;;;;;;;14.47;2.70;;;2.60;99.90;;;;;;5038599;28;20540;-80
2022/01/05 05:11:12;;;;;;;11.53;2.80;;;2.70;99.90;;;;;;5038543;28;20528;-80
2022/01/05 05:13:40;;;;;;;12.40;3.10;;;2.70;99.90;;;;;;5039105;28;20932;-80
2022/01/05 05:16:07;;;;;;;16.13;2.97;;;2.70;99.90;;;;;;5039209;28;20441;-80
2022/01/05 05:18:36;;;;;;;15.17;2.90;;;2.80;99.90;;;;;;5039472;28;20440;-80
2022/01/05 05:21:07;;;;;;;12.77;3.20;;;2.70;99.90;;;;;;5039789;28;20454;-80
2022/01/05 05:23:37;;;;;;;11.57;2.60;;;2.60;99.90;;;;;;5039629;28;20472;-80
2022/01/05 05:26:07;;;;;;;15.93;2.70;;;2.60;99.90;;;;;;5040330;28;20487;-80
2022/01/05 05:28:36;;;;;;;17.40;3.83;;;2.70;99.90;;;;;;5040214;28;20451;-80
2022/01/05 05:31:04;;;;;;;11.80;2.40;;;2.70;99.90;;;;;;5041009;28;20488;-80
2022/01/05 05:33:37;;;;;;;8.73;2.33;;;2.70;99.90;;;;;;5041083;28;20448;-80
2022/01/05 05:36:10;;;;;;;18.37;3.27;;;2.80;99.90;;;;;;5044516;28;20463;-80
2022/01/05 05:38:43;;;;;;;8.23;2.43;;;2.80;99.90;;;;;;5047730;28;20520;-80
2022/01/05 05:41:10;;;;;;;16.80;3.13;;;2.70;99.90;;;;;;5047051;28;20444;-80
2022/01/05 05:43:39;;;;;;;14.60;3.37;;;2.70;99.90;;;;;;5040881;28;20452;-80
2022/01/05 05:46:07;;;;;;;16.47;3.17;;;2.80;99.90;;;;;;5026335;28;20461;-80
2022/01/05 05:48:36;;;;;;;16.33;3.03;;;2.90;99.90;;;;;;5025453;28;20465;-80
2022/01/05 05:51:03;;;;;;;10.20;2.43;;;2.90;99.90;;;;;;5025571;28;20455;-80
2022/01/05 05:53:31;;;;;;;11.10;2.43;;;2.90;99.90;;;;;;5024405;28;20445;-80
2022/01/05 05:56:01;;;;;;;10.30;2.37;;;3.00;99.90;;;;;;5026772;28;20495;-80
2022/01/05 05:58:37;;;;;;;19.80;3.40;;;3.00;99.90;;;;;;5031543;28;20448;-80
2022/01/05 06:01:04;;;;;;;14.77;3.30;;;3.00;99.90;;;;;;5034223;28;20499;-80
2022/01/05 06:03:35;;;;;;;11.27;2.33;;;3.00;99.90;;;;;;5026783;28;20488;-80
2022/01/05 06:06:10;;;;;;;12.33;2.30;;;3.00;99.90;;;;;;5024146;28;20528;-80
2022/01/05 06:08:41;;;;;;;11.33;3.03;;;3.00;99.90;;;;;;5024872;28;20603;-80
2022/01/05 06:11:11;;;;;;;16.73;2.67;;;3.10;99.90;;;;;;5025699;28;20473;-80
2022/01/05 06:13:39;;;;;;;8.47;2.70;;;3.10;99.90;;;;;;5023696;28;20446;-80
2022/01/05 06:16:07;;;;;;;17.17;2.50;;;3.10;99.90;;;;;;5023294;28;20615;-80
2022/01/05 06:18:39;;;;;;;13.20;3.10;;;3.10;99.90;;;;;;5025048;28;20445;-80
2022/01/05 06:21:11;;;;;;;11.70;2.47;;;3.10;99.90;;;;;;5026150;28;20429;-80
2022/01/05 06:23:40;;;;;;;16.40;2.80;;;3.10;99.90;;;;;;5028674;28;20545;-80
2022/01/05 06:26:09;;;;;;;13.27;2.97;;;3.20;99.90;;;;;;5028217;28;20456;-80
2022/01/05 06:28:39;;;;;;;16.07;2.50;;;3.10;99.90;;;;;;5027746;28;20426;-80
2022/01/05 06:31:10;;;;;;;16.90;3.37;;;3.20;99.90;;;;;;5028328;28;21014;-80
2022/01/05 06:33:44;;;;;;;9.03;2.53;;;3.10;99.90;;;;;;5027867;28;20473;-80
2022/01/05 06:36:15;;;;;;;15.60;2.83;;;3.10;99.90;;;;;;5027389;28;20575;-80
2022/01/05 06:38:45;;;;;;;9.20;2.13;;;3.20;99.90;;;;;;5028136;28;20426;-80
2022/01/05 06:41:13;;;;;;;14.70;2.50;;;3.20;99.90;;;;;;5027206;28;20437;-80
2022/01/05 06:43:42;;;;;;;11.30;2.37;;;3.20;99.90;;;;;;5026086;28;20445;-79
2022/01/05 06:46:15;;;;;;;10.73;2.60;;;3.20;99.90;;;;;;5045849;28;20449;-80
2022/01/05 06:48:47;;;;;;;10.83;2.80;;;3.30;99.90;;;;;;5046437;28;20433;-79
2022/01/05 06:51:26;;;;;;;11.82;3.10;;;3.40;99.90;;;;;;5043495;28;20477;-80
2022/01/05 06:53:54;;;;;;;16.47;4.00;;;3.40;99.90;;;;;;5042403;28;20298;-80
2022/01/05 06:56:21;;;;;;;12.27;2.90;;;3.40;99.90;;;;;;5041908;28;20495;-80
2022/01/05 06:58:48;;;;;;;10.50;3.00;;;3.40;99.90;;;;;;5042291;28;20454;-80
2022/01/05 07:01:18;;;;;;;9.40;2.17;;;3.30;99.90;;;;;;5043048;28;21034;-80
2022/01/05 07:03:45;;;;;;;14.43;2.73;;;3.40;99.90;;;;;;5044342;28;20519;-80
2022/01/05 07:06:13;;;;;;;14.63;2.67;;;3.50;99.90;;;;;;5043661;28;20469;-80
2022/01/05 07:08:44;;;;;;;13.63;2.67;;;3.40;99.90;;;;;;5046166;28;20442;-80
2022/01/05 07:11:15;;;;;;;10.07;2.80;;;3.50;99.90;;;;;;5047129;28;20452;-82
2022/01/05 07:13:55;;;;;;;10.07;3.13;;;3.50;99.90;;;;;;5048464;28;20463;-80
2022/01/05 07:16:35;;;;;;;12.07;2.83;;;3.40;99.90;;;;;;5047951;28;20487;-80
2022/01/05 07:19:07;;;;;;;12.27;2.80;;;3.40;99.90;;;;;;5045532;28;20507;-80
2022/01/05 07:21:40;;;;;;;12.13;2.73;;;3.40;99.90;;;;;;5049893;28;20455;-81
2022/01/05 07:24:19;;;;;;;11.80;3.53;;;3.40;99.90;;;;;;5046572;28;20508;-77
2022/01/05 07:26:48;;;;;;;13.80;2.77;;;3.50;99.90;;;;;;5048417;28;20472;-80
2022/01/05 07:29:19;;;;;;;11.83;3.13;;;3.50;99.90;;;;;;5048688;28;20438;-80
2022/01/05 07:31:55;;;;;;;11.33;3.13;;;3.50;99.90;;;;;;5049073;28;20440;-81
2022/01/05 07:34:23;;;;;;;11.27;3.00;;;3.60;99.90;;;;;;5047677;28;21041;-80
2022/01/05 07:36:59;;;;;;;13.47;3.10;;;3.40;99.90;;;;;;5046597;28;20461;-80
2022/01/05 07:40:04;;;;;;;10.13;2.77;;;3.40;99.90;;;;;;5042822;28;20509;-80
2022/01/05 07:42:34;;;;;;;14.13;2.80;;;3.40;99.90;;;;;;5045972;28;20456;-78
2022/01/05 07:45:10;;;;;;;20.93;3.40;;;3.40;99.90;;;;;;5055142;28;20490;-79
2022/01/05 07:47:53;;;;;;;12.47;2.67;;;3.50;99.90;;;;;;5050177;28;20463;-79
2022/01/05 07:50:28;;;;;;;10.30;3.07;;;3.60;99.90;;;;;;5055010;28;20464;-79
2022/01/05 07:53:12;;;;;;;9.17;2.67;;;3.40;99.90;;;;;;5057247;28;20454;-80
2022/01/05 07:55:41;;;;;;;11.50;3.10;;;3.50;99.90;;;;;;5048415;28;20511;-81
2022/01/05 07:58:11;;;;;;;11.87;2.97;;;3.60;99.90;;;;;;5045864;28;20461;-81
2022/01/05 08:00:51;;;;;;;12.07;2.60;;;3.60;99.90;;;;;;5046010;28;20459;-80
2022/01/05 08:03:25;;;;;;;11.30;3.57;;;3.60;99.90;;;;;;5045572;28;20451;-81
2022/01/05 08:05:52;;;;;;;13.13;3.30;;;3.60;99.90;;;;;;5045881;28;20462;-81
2022/01/05 08:08:30;;;;;;;14.70;3.85;;;3.60;99.90;;;;;;5044176;28;20511;-81
2022/01/05 08:11:03;;;;;;;15.23;3.80;;;3.70;99.90;;;;;;5045964;28;20301;-81
2022/01/05 08:13:35;;;;;;;18.40;3.33;;;3.70;99.90;;;;;;5045370;28;20451;-81
2022/01/05 08:16:09;;;;;;;11.17;3.53;;;3.70;99.90;;;;;;5044996;28;20490;-80
2022/01/05 08:18:43;;;;;;;10.93;3.57;;;3.70;99.90;;;;;;5044497;28;20467;-80
2022/01/05 08:21:17;;;;;;;14.57;3.60;;;3.60;99.90;;;;;;5043931;28;20424;-80
2022/01/05 08:23:45;;;;;;;17.33;3.07;;;3.70;99.90;;;;;;5042972;28;20472;-80
2022/01/05 08:26:16;;;;;;;11.30;3.60;;;3.80;99.90;;;;;;5043182;28;20962;-80
2022/01/05 08:28:51;;;;;;;16.13;3.40;;;3.70;99.90;;;;;;5049690;28;20449;-81
2022/01/05 08:31:19;;;;;;;15.27;2.90;;;3.70;99.90;;;;;;5047291;28;20534;-80
2022/01/05 08:33:56;;;;;;;14.77;2.93;;;3.80;99.90;;;;;;5052256;28;20596;-80
2022/01/05 08:36:24;;;;;;;13.13;3.40;;;3.80;99.90;;;;;;5047667;28;20517;-80
2022/01/05 08:38:56;;;;;;;17.23;3.03;;;3.80;99.90;;;;;;5047779;28;20453;-81
2022/01/05 08:41:27;;;;;;;11.47;3.33;;;3.80;99.90;;;;;;5047037;28;20479;-81
2022/01/05 08:43:55;;;;;;;12.07;2.87;;;3.90;99.90;;;;;;5047286;28;20540;-81
2022/01/05 08:46:24;;;;;;;12.43;2.63;;;3.90;99.90;;;;;;5048715;28;20524;-81
2022/01/05 08:48:51;;;;;;;12.83;3.23;;;4.00;99.90;;;;;;5048725;28;20539;-80
2022/01/05 08:51:21;;;;;;;17.37;3.07;;;4.00;99.90;;;;;;5048131;28;20468;-80
2022/01/05 08:53:56;;;;;;;17.53;3.10;;;4.00;99.90;;;;;;5047447;28;20446;-80
2022/01/05 08:56:32;;;;;;;18.93;3.37;;;4.00;99.90;;;;;;5048788;28;20533;-81
2022/01/05 08:59:21;;;;;;;20.03;3.37;;;4.00;99.90;;;;;;5050215;28;20456;-82
2022/01/05 09:01:57;;;;;;;14.00;3.33;;;4.10;99.90;;;;;;5050306;28;20441;-80
2022/01/05 09:04:29;;;;;;;13.13;3.53;;;4.00;99.90;;;;;;5049767;28;20452;-81
2022/01/05 09:07:17;;;;;;;14.10;3.33;;;4.20;99.90;;;;;;5049814;28;20474;-80
2022/01/05 09:09:49;;;;;;;17.57;3.63;;;4.30;99.90;;;;;;5049118;28;20480;-81
2022/01/05 09:12:24;;;;;;;12.67;3.40;;;4.30;99.90;;;;;;5052557;28;20463;-81
2022/01/05 09:14:53;;;;;;;13.97;2.73;;;4.30;99.90;;;;;;5051172;28;20448;-81
2022/01/05 09:20:01;;;;;;;19.17;3.90;;;4.40;99.90;;;;;;5040753;28;20440;-81
2022/01/05 09:22:30;;;;;;;17.10;3.70;;;4.50;99.90;;;;;;5047648;28;20500;-81
2022/01/05 09:24:59;;;;;;;20.53;3.53;;;4.40;99.90;;;;;;5046617;28;20448;-80
2022/01/05 09:27:34;;;;;;;13.97;3.23;;;4.50;99.90;;;;;;5048921;28;20440;-80
2022/01/05 09:30:26;;;;;;;14.27;3.47;;;4.60;99.90;;;;;;5049446;28;20426;-80
2022/01/05 09:33:00;;;;;;;11.83;3.43;;;4.60;99.90;;;;;;5049966;28;20445;-80
2022/01/05 09:35:29;;;;;;;18.23;4.83;;;4.60;99.90;;;;;;5039604;28;20486;-80
2022/01/05 09:38:21;;;;;;;19.13;4.07;;;4.80;99.90;;;;;;5047556;28;20195;-80
2022/01/05 09:44:15;;;;;;;22.10;4.27;;;4.70;99.90;;;;;;5050026;28;20202;-79
2022/01/05 09:47:20;;;;;;;16.37;3.70;;;4.80;99.90;;;;;;5048516;28;20207;-80
2022/01/05 09:49:54;;;;;;;19.23;3.30;;;4.80;99.90;;;;;;5047837;28;20199;-80
2022/01/05 09:52:24;;;;;;;14.03;4.07;;;4.80;99.90;;;;;;5052078;28;20576;-80
2022/01/05 09:54:55;;;;;;;12.17;3.97;;;5.10;99.90;;;;;;5051471;28;20192;-80
2022/01/05 10:00:09;;;;;;;16.20;3.60;;;5.00;99.90;;;;;;5049370;28;20494;-81
2022/01/05 10:02:39;;;;;;;14.53;3.40;;;5.10;99.90;;;;;;5050722;28;20207;-84
2022/01/05 10:08:20;;;;;;;21.80;3.83;;;5.20;99.90;;;;;;5024805;27;4674439;-79
2022/01/05 10:10:47;;;;;;;14.97;3.43;;;5.30;99.90;;;;;;5160868;27;20204;-79
2022/01/05 10:13:27;;;;;;;16.07;3.43;;;5.30;99.90;;;;;;5172593;27;20275;-82
2022/01/05 10:15:56;;;;;;;15.90;3.53;;;5.40;99.90;;;;;;5173685;27;20207;-82
2022/01/05 10:18:51;;;;;;;13.67;3.30;;;5.50;99.90;;;;;;5173212;27;20203;-82
2022/01/05 10:21:19;;;;;;;18.43;4.10;;;5.50;99.90;;;;;;5171997;27;20219;-81
2022/01/05 10:23:58;;;;;;;18.73;3.87;;;5.50;99.90;;;;;;5157325;27;20220;-81
2022/01/05 10:26:42;;;;;;;13.20;3.70;;;5.60;99.90;;;;;;5152866;28;20239;-82
2022/01/05 10:29:21;;;;;;;18.23;3.57;;;5.70;99.90;;;;;;5151314;28;20217;-81
2022/01/05 10:32:01;;;;;;;15.77;3.50;;;5.70;99.90;;;;;;5151647;28;20199;-81
2022/01/05 10:34:42;;;;;;;20.33;3.13;;;5.80;99.90;;;;;;5150589;28;20243;-82
2022/01/05 10:37:12;;;;;;;18.87;3.30;;;5.90;99.90;;;;;;5147739;28;20203;-80
2022/01/05 10:39:44;;;;;;;13.77;3.73;;;6.00;99.90;;;;;;5122729;28;20203;-78
2022/01/05 10:42:31;;;;;;;10.50;2.60;;;6.00;99.90;;;;;;5150645;28;20202;-82
2022/01/05 10:45:16;;;;;;;14.43;2.80;;;6.10;99.90;;;;;;5150595;28;20192;-81
2022/01/05 10:48:04;;;;;;;16.47;3.07;;;6.10;99.90;;;;;;5150883;28;20226;-81
2022/01/05 10:50:43;;;;;;;14.20;3.47;;;6.20;99.90;;;;;;5150789;28;20210;-81
2022/01/05 10:53:24;;;;;;;13.07;3.10;;;6.20;99.90;;;;;;5134028;28;20204;-81
2022/01/05 10:56:02;;;;;;;12.90;3.50;;;6.20;99.90;;;;;;5127661;28;20204;-79
2022/01/05 10:58:44;;;;;;;8.53;3.03;;;6.20;99.90;;;;;;5114452;28;20204;-77
2022/01/05 11:01:27;;;;;;;10.33;2.57;;;6.20;99.90;;;;;;5114280;28;20207;-77
2022/01/05 11:07:12;;;;;;;9.57;2.70;;;6.30;99.90;;;;;;5126904;28;20228;-80
2022/01/05 11:16:41;;;;;;;12.13;2.47;;;6.40;99.90;;;;;;5122499;28;20205;-81
2022/01/05 11:19:36;;;;;;;9.53;2.33;;;6.50;99.90;;;;;;5120961;28;20205;-81
2022/01/05 11:22:32;;;;;;;10.83;2.40;;;6.50;99.90;;;;;;5118813;28;20260;-80
2022/01/05 11:25:21;;;;;;;12.80;2.80;;;6.50;99.90;;;;;;5118727;28;20227;-82
2022/01/05 11:27:56;;;;;;;10.67;2.30;;;6.50;99.90;;;;;;5128738;28;20228;-80
2022/01/05 11:30:31;;;;;;;9.93;2.67;;;6.60;99.90;;;;;;5137174;28;20288;-82
2022/01/05 11:33:12;;;;;;;10.87;2.70;;;6.40;99.90;;;;;;5136827;28;20207;-81
2022/01/05 11:35:52;;;;;;;10.57;2.10;;;6.40;99.90;;;;;;5137949;28;20269;-81
2022/01/05 11:41:40;;;;;;;11.93;2.90;;;6.50;99.90;;;;;;5137201;28;20201;-82
2022/01/05 11:44:31;;;;;;;13.60;2.63;;;6.40;99.90;;;;;;5138211;28;20612;-81
2022/01/05 11:47:14;;;;;;;11.20;2.97;;;6.50;99.90;;;;;;5138823;28;20268;-82
2022/01/05 11:49:53;;;;;;;18.33;3.33;;;6.60;99.90;;;;;;5139282;28;20210;-81
2022/01/05 11:52:56;;;;;;;14.50;3.07;;;6.60;99.90;;;;;;5139516;28;20197;-82
2022/01/05 11:56:04;;;;;;;11.27;3.47;;;6.60;99.90;;;;;;5138916;28;20180;-81
2022/01/05 11:58:36;;;;;;;15.77;2.93;;;6.70;99.90;;;;;;5139312;28;20191;-81
2022/01/05 12:01:39;;;;;;;13.40;2.80;;;6.70;99.90;;;;;;5120580;28;20206;-81
2022/01/05 12:05:09;;;;;;;16.40;2.83;;;6.70;99.90;;;;;;5116008;28;20223;-81
2022/01/05 12:07:43;;;;;;;11.30;2.70;;;6.70;99.90;;;;;;5080286;28;20208;-81
2022/01/05 12:10:54;;;;;;;13.20;2.73;;;6.70;99.90;;;;;;5096561;28;20205;-80
2022/01/05 12:13:46;;;;;;;13.80;2.67;;;6.80;99.90;;;;;;5116191;28;20268;-81
2022/01/05 12:16:30;;;;;;;6.37;2.20;;;6.90;99.90;;;;;;5113244;28;20262;-80
2022/01/05 12:19:23;;;;;;;13.33;3.33;;;6.90;99.90;;;;;;5114039;28;20205;-81
2022/01/05 12:22:37;;;;;;;8.70;2.57;;;6.90;99.90;;;;;;5114740;28;20250;-80
2022/01/05 12:25:13;;;;;;;6.93;1.97;;;6.90;99.90;;;;;;5114933;28;20262;-79
2022/01/05 12:27:59;;;;;;;9.10;2.30;;;6.90;99.90;;;;;;5098116;28;20640;-80
2022/01/05 12:31:04;;;;;;;9.73;2.33;;;7.00;99.90;;;;;;5110144;28;20201;-78
2022/01/05 12:33:48;;;;;;;13.00;2.27;;;7.10;99.90;;;;;;5091562;28;20233;-78
2022/01/05 12:36:35;;;;;;;12.37;2.23;;;7.20;99.90;;;;;;5113876;28;20242;-78
2022/01/05 12:39:09;;;;;;;8.63;2.80;;;7.20;99.90;;;;;;5099477;28;20212;-77
2022/01/05 12:41:48;;;;;;;15.53;2.90;;;7.20;99.90;;;;;;5100031;28;20228;-80
2022/01/05 12:47:42;;;;;;;9.90;2.40;;;7.40;99.90;;;;;;5087553;28;20356;-80
2022/01/05 12:50:32;;;;;;;9.23;2.17;;;7.40;99.90;;;;;;5113556;28;20196;-80
2022/01/05 12:53:52;;;;;;;7.50;2.23;;;7.30;99.90;;;;;;5127473;28;20678;-79
2022/01/05 12:56:23;;;;;;;11.93;2.30;;;7.40;99.90;;;;;;5117836;28;20211;-80
2022/01/05 12:59:14;;;;;;;11.47;2.00;;;7.30;99.90;;;;;;5128495;28;20193;-79
2022/01/05 13:01:44;;;;;;;11.93;2.43;;;7.50;99.90;;;;;;5112812;28;20215;-80
2022/01/05 13:04:13;;;;;;;12.40;2.30;;;7.50;99.90;;;;;;5129105;28;20199;-79
2022/01/05 13:06:42;;;;;;;10.10;2.17;;;7.40;99.90;;;;;;5115930;28;20204;-79
2022/01/05 13:09:10;;;;;;;9.17;2.27;;;7.50;99.90;;;;;;5115661;28;20220;-79
2022/01/05 13:11:41;;;;;;;19.20;2.70;;;7.50;99.90;;;;;;5102779;28;20575;-79
2022/01/05 13:14:21;;;;;;;7.13;1.83;;;7.40;99.90;;;;;;5094413;28;20547;-78
2022/01/05 13:16:52;;;;;;;9.00;2.20;;;7.40;99.90;;;;;;5102944;28;20205;-79
2022/01/05 13:19:25;;;;;;;10.37;2.43;;;7.40;99.90;;;;;;5115496;28;20710;-79
2022/01/05 13:21:55;;;;;;;9.63;2.17;;;7.30;99.90;;;;;;5115802;28;20797;-79
2022/01/05 13:24:25;;;;;;;10.30;2.47;;;7.20;99.90;;;;;;5114987;28;20576;-78
2022/01/05 13:27:02;;;;;;;10.30;2.83;;;7.30;99.90;;;;;;5114023;28;20406;-79
2022/01/05 13:29:31;;;;;;;9.30;2.33;;;7.30;99.90;;;;;;5116553;28;20685;-79
2022/01/05 13:31:59;;;;;;;5.07;1.70;;;7.30;99.90;;;;;;5122394;28;20311;-79
2022/01/05 13:34:32;;;;;;;9.93;2.47;;;7.40;99.90;;;;;;5099963;28;20205;-78
2022/01/05 13:37:01;;;;;;;12.43;2.23;;;7.20;99.90;;;;;;5081649;28;20213;-79
2022/01/05 13:39:46;;;;;;;15.33;3.27;;;7.10;99.90;;;;;;5083180;28;20202;-79
2022/01/05 13:42:19;;;;;;;10.13;2.57;;;7.10;99.90;;;;;;5077768;28;20201;-79
2022/01/05 13:44:48;;;;;;;13.20;3.40;;;7.20;99.90;;;;;;5078338;28;20544;-79
2022/01/05 13:47:18;;;;;;;15.20;2.93;;;7.00;99.90;;;;;;5078774;28;20601;-80
2022/01/05 13:50:11;;;;;;;11.27;2.10;;;7.00;99.90;;;;;;5078461;28;20213;-79
2022/01/05 13:52:38;;;;;;;11.77;3.03;;;6.90;99.90;;;;;;5074214;28;20213;-79
2022/01/05 13:55:05;;;;;;;11.40;2.33;;;6.80;99.90;;;;;;5075969;28;20190;-79
2022/01/05 13:57:35;;;;;;;12.90;2.70;;;6.80;99.90;;;;;;5086212;28;20201;-79